Central Sonoma County Latest

37 Stations

15 Minute Data | America/Los_Angeles
as of 5/8/26 10:42 AM PDT
Station Date Time Temp (°F) RH (%) Dew Pt (°F) Wind Spd (mph) Wind Dir (°) Wind Gust (mph) Latest Rain (In) Daily Rain (In) Daily Max Temp (°F) Daily Min Temp (°F)
Windsor-NW (Ranch 8) 5/8/26 1030 61.6   4.5 77   7 54.2   2.0 3.9   1.7 WSW | 249 8.7   3.3 0.00 0.00 64.0   6.9 51.2   0.8
Windsor-East (Ranch 16) 5/8/26 1030 63.1   6.3 65   19 51.1   0.9 2.8   0.8 SW | 216 6.3   2.3 0.00 0.00 64.0   6.4 52.0   0.4
Mark West-North (Ranch 14) 5/8/26 1030 63.9   7.1 62   21 50.7   1.1 1.6   0.6 SSE | 160 4.6   2.5 0.00 0.00 65.1   7.9 51.8   0.0
Windsor-SE (Silk Rd) 5/8/26 1030 61.7   6.1 71   19 52.3   0.4 3.5   1.9 SW | 232 8.2   4.6 0.00 0.00 62.4   6.5 51.6   0.6
Fulton-NW (Ranch 5) 5/8/26 1030 63.2   6.6 66   19 51.6   0.4 2.0   0.8 SW | 236 5.0   1.0 0.00 0.00 63.9   7.0 51.6   0.2
Bisordi (Fulton) 5/8/26 1030 62.5   6.2 73   15 53.7   0.8 3.2   1.5 SW | 231 8.2   3.8 0.00 0.00 62.5   6.2 51.9   0.4
Windsor-South (Laughlin Rd) 5/8/26 1030 64.8 63 52.0 - - - 0.00 0.00 65.7 51.4
Fulton-SE (Barnes Rd) 5/8/26 1030 63.9   7.0 67   19 52.6   0.1 0.0   1.2 N | 0 0.0   3.8 0.00 0.00 63.9   7.0 52.2   0.1
Fulton-SW (Ranch 21) 5/8/26 1030 62.6   7.3 68   19 52.0   0.5 3.8   2.9 SSW | 205 11.8   8.1 0.00 0.00 63.6   7.9 51.1   0.1
NW Santa Rosa (Piner Road) 5/8/26 1015 61.2   6.6 80   20 54.9   0.3 2.4   1.5 WSW | 238 6.9   3.2 0.00 0.00 62.4   7.4 51.2   0.2
River Rd South (Denner Ranch) 5/8/26 0645 51.7   0.1 0   0 -66.6   0.1 1.7   0.0 SSE | 147 3.3   1.1 - - 52.0   0.5 50.9   0.2
West Santa Rosa (LOV Vineyard) 5/8/26 1030 60.2   4.7 75   13 52.2   0.2 4.3   2.8 SW | 226 7.9   3.9 0.00 0.00 60.9   5.2 51.1   0.4
Guerneville Rd (Prokopakis) 5/8/26 1030 65.7   9.9 65   22 53.7   1.6 - - - 0.00 0.00 66.5   10.6 51.5   0.3
SunnyView Vineyard (SCWC) 5/8/26 1030 64.6   8.3 65   19 52.4   1.1 2.5   1.1 WSW | 248 5.8   2.1 0.00 0.00 65.5   8.8 50.9   0.2
Guerneville Rd West (Balletto) 5/8/26 1030 60.9   6.3 77   16 53.7   0.9 4.8   3.5 WSW | 257 8.6   5.0 0.00 0.00 61.1   6.1 51.3   0.3
Sanchietti Ranch 5/8/26 1030 62.8   6.8 80   9 56.6   3.8 3.1   2.4 WSW | 239 6.5   3.8 0.00 0.00 63.0   6.9 51.9   0.3
Occidental Rd (Sebastopol) 5/8/26 1030 61.7   7.1 100   0 61.7   7.1 4.6   2.5 SSW | 205 10.5   6.4 0.00 0.00 62.8   8.0 50.7   0.4
Harper's Rest (Windsor-West) 5/8/26 1030 60.4   4.6 71   13 51.1   0.0 2.4   1.2 SSW | 200 6.3   3.3 0.00 0.00 61.8   5.6 49.9   0.8
Lower Westside Rd (Ranch 12) 5/8/26 1030 62.6   5.5 68   16 51.8   0.4 2.5   1.2 SW | 228 6.2   2.7 0.00 0.00 63.7   6.1 51.2   0.4
Guerneville (Laughlin Rd) 5/8/26 1030 61.1   1.7 74   0 52.7   1.6 2.9   1.0 SSE | 163 7.2   1.0 0.00 0.00 61.1   1.7 50.8   0.6
Korbel (Winery) 5/8/26 1030 62.1   3.8 69   11 52.0   0.2 0.1   0.1 NNW | 333 3.4   3.4 0.00 0.00 62.1   3.7 51.7   0.4
Forestville (Shone Farms) 5/8/26 1030 61.6   6.3 72   18 52.5   0.1 2.5   0.8 W | 263 6.7   2.2 0.00 0.00 63.1   6.5 49.9   0.0
Forestville-NE (Ranch 30) 5/8/26 1030 62.5   6.5 71   19 53.2   0.2 4.4   3.4 NW | 322 8.6   5.0 0.00 0.00 63.2   6.9 50.8   0.1
Foggy Bend (Ranch 41) 5/8/26 1030 61.0   5.4 78   14 54.0   0.9 5.2   3.2 NW | 309 9.6   5.5 0.00 0.00 61.5   5.8 52.0   0.2
Last Stop 5/8/26 1030 62.1   7.6 76   17 54.5   1.9 3.2   2.0 SSE | 155 7.8   4.7 0.00 0.00 62.1   7.5 51.3   0.1
Green Valley Vineyard 5/8/26 1030 59.7   6.1 78   19 52.7   0.1 2.7   1.2 SSW | 192 6.8   2.6 0.00 0.01 60.8   6.4 50.2   0.1
Park Royal 5/8/26 1030 62.5   7.0 68   18 51.6   0.4 - - - 0.00 0.00 63.0   7.1 50.6   0.5
Merino 5/8/26 1030 62.5   7.3 76   17 54.8   1.4 2.5   0.2 WSW | 249 6.2   1.5 0.00 0.00 62.9   7.4 51.0   0.5
Green Valley (Sanchietti) 5/8/26 1030 63.6   7.4 - - - - - - - 64.5   8.1 51.7   1.3
Keefer Ranch (Green Valley) 5/8/26 1030 59.2   3.9 82   10 53.7   0.7 - - - 0.00 0.00 59.6   4.1 51.4   0.1
Graton-West (Dutton Ranch) 5/8/26 1030 59.2   3.5 100   0 59.2   3.5 3.8   2.3 S | 171 7.5   4.0 0.00 0.01 60.8   4.2 51.4   0.1
Graton-South (Mill Station Rd) 5/8/26 1030 57.2   3.2 82   14 51.9   1.1 2.2   2.2 SW | 236 5.0   2.9 0.00 0.00 58.1   3.4 50.3   0.4
Occidental (Horseshoe Bend) 5/8/26 1030 53.9   0.2 96   4 52.7   1.0 - - - 0.00 0.00 54.3   0.1 48.6   0.7
Sexton Valley (Jacqueline's Blk) 5/8/26 1030 56.7   2.4 86   12 52.6   1.1 4.3   3.2 WNW | 297 8.1   4.9 0.00 0.01 57.0   2.2 50.8   0.2
Sebastopol Hills (Burnside Rd) 5/8/26 1015 53.6   1.2 98   2 53.1   0.8 4.1   3.4 SSW | 208 7.2   5.0 0.00 0.01 54.2   1.7 49.3   0.2
Pleasant Hill 5/8/26 1030 57.6   3.7 81   14 51.9   0.8 4.5   3.5 WSW | 240 8.2   4.4 0.00 0.01 60.4   5.7 49.7   0.6
Seaview/Fort Ross (Hirsch) 5/8/26 1030 59.6   5.8 75   19 51.6   0.5 5.1   2.5 N | 355 8.0   3.0 0.00 0.00 59.8   2.9 43.9   3.3
Max     65.7 100 61.7 5.2 - 11.8 0.00 0.01 66.5 52.2
Avg     61.2 76 53.2 3.2 - 7.0 0.00 - - -
Min     53.6 62 50.7 0.0 - 0.0 0.00 0.00 54.2 43.9